createdAt,value
2022-12-20T00:01:37.472Z,98657.13
2022-12-20T00:05:41.337Z,98651.63
2022-12-20T00:09:44.885Z,98664.16
2022-12-20T00:13:48.530Z,98646.78
2022-12-20T00:17:53.939Z,98651.34
2022-12-20T00:21:57.109Z,98669.06
2022-12-20T00:26:05.073Z,98653.69
2022-12-20T00:30:09.439Z,98642.53
2022-12-20T00:34:14.016Z,98622.81
2022-12-20T00:38:17.681Z,98651.72
2022-12-20T00:42:20.722Z,98643.13
2022-12-20T00:46:25.172Z,98616.53
2022-12-20T00:50:29.821Z,98618.94
2022-12-20T00:54:33.314Z,98643.91
2022-12-20T00:58:38.138Z,98610.50
2022-12-20T01:02:41.843Z,98653.38
2022-12-20T01:06:46.493Z,98650.16
2022-12-20T01:11:00.222Z,98673.75
2022-12-20T01:15:03.332Z,98663.63
2022-12-20T01:19:08.476Z,98661.69
2022-12-20T01:23:13.498Z,98668.47
2022-12-20T01:27:16.740Z,98655.22
2022-12-20T01:31:20.725Z,98667.66
2022-12-20T01:35:24.133Z,98648.34
2022-12-20T01:39:28.532Z,98631.09
2022-12-20T01:43:49.512Z,98624.41
2022-12-20T01:47:52.968Z,98624.59
2022-12-20T01:52:01.652Z,98622.25
2022-12-20T01:56:08.987Z,98636.13
2022-12-20T02:00:13.351Z,98630.34
2022-12-20T02:04:16.680Z,98626.34
2022-12-20T02:08:21.627Z,98618.81
2022-12-20T02:12:29.032Z,98621.44
2022-12-20T02:16:39.139Z,98622.28
2022-12-20T02:21:19.971Z,98617.09
2022-12-20T02:25:46.326Z,98622.06
2022-12-20T02:30:17.099Z,98618.47
2022-12-20T02:34:25.290Z,98612.38
2022-12-20T02:38:31.419Z,98613.81
2022-12-20T02:42:36.328Z,98605.16
2022-12-20T02:46:41.093Z,98617.75
2022-12-20T02:50:48.627Z,98613.22
2022-12-20T02:54:51.791Z,98614.88
2022-12-20T02:58:59.851Z,98619.72
2022-12-20T03:03:24.990Z,98611.13
2022-12-20T03:07:30.958Z,98609.19
2022-12-20T03:11:34.332Z,98609.03
2022-12-20T03:15:37.823Z,98612.34
2022-12-20T03:19:42.695Z,98617.31
2022-12-20T03:23:45.724Z,98628.34
2022-12-20T03:27:48.972Z,98627.28
2022-12-20T03:31:52.127Z,98604.50
2022-12-20T03:35:56.986Z,98599.72
2022-12-20T03:40:00.201Z,98582.13
2022-12-20T03:44:03.703Z,98597.97
2022-12-20T03:48:06.862Z,98594.59
2022-12-20T03:52:13.609Z,98597.88
2022-12-20T03:56:16.736Z,98602.13
2022-12-20T04:00:21.044Z,98594.44
2022-12-20T04:04:24.240Z,98578.94
2022-12-20T04:08:28.987Z,98580.56
2022-12-20T04:12:32.056Z,98581.44
2022-12-20T04:16:36.158Z,98584.00
2022-12-20T04:20:39.219Z,98588.31
2022-12-20T04:24:43.940Z,98589.97
2022-12-20T04:28:47.009Z,98567.69
2022-12-20T04:32:50.281Z,98588.19
2022-12-20T04:36:53.345Z,98594.13
2022-12-20T04:40:58.279Z,98572.94
2022-12-20T04:45:01.304Z,98572.94
2022-12-20T04:49:04.894Z,98583.78
2022-12-20T04:53:25.464Z,98587.19
2022-12-20T04:57:30.187Z,98576.84
2022-12-20T05:01:33.523Z,98572.50
2022-12-20T05:05:36.948Z,98576.03
2022-12-20T05:09:40.454Z,98597.94
2022-12-20T05:13:45.299Z,98599.56
2022-12-20T05:17:48.321Z,98584.91
2022-12-20T05:22:08.657Z,98557.47
2022-12-20T05:26:20.663Z,98542.09
2022-12-20T05:30:26.201Z,98540.44
2022-12-20T05:34:29.449Z,98559.25
2022-12-20T05:38:33.190Z,98571.34
2022-12-20T05:42:36.677Z,98560.25
2022-12-20T05:46:41.473Z,98554.13
2022-12-20T05:50:45.433Z,98557.47
2022-12-20T05:54:49.105Z,98542.16
2022-12-20T05:58:52.122Z,98532.81
2022-12-20T06:02:57.061Z,98521.72
2022-12-20T06:07:01.123Z,98525.34
2022-12-20T06:11:05.721Z,98539.75
2022-12-20T06:15:10.993Z,98544.03
2022-12-20T06:19:21.239Z,98540.59
2022-12-20T06:23:24.849Z,98547.38
2022-12-20T06:27:28.254Z,98553.34
2022-12-20T06:31:31.455Z,98561.03
2022-12-20T06:35:36.662Z,98560.09
2022-12-20T06:39:39.951Z,98565.22
2022-12-20T06:43:51.028Z,98561.75
2022-12-20T06:47:54.104Z,98562.59
2022-12-20T06:51:58.901Z,98553.97
2022-12-20T06:56:02.028Z,98549.78
2022-12-20T07:00:08.750Z,98547.13
2022-12-20T07:04:11.909Z,98540.25
2022-12-20T07:08:16.791Z,98525.69
2022-12-20T07:12:20.200Z,98530.84
2022-12-20T07:16:23.759Z,98531.66
2022-12-20T07:20:27.945Z,98534.97
2022-12-20T07:24:33.709Z,98526.22
2022-12-20T07:28:36.851Z,98530.44
2022-12-20T07:32:40.213Z,98529.38
2022-12-20T07:36:43.523Z,98524.09
2022-12-20T07:40:48.652Z,98532.47
2022-12-20T07:44:51.683Z,98536.69
2022-12-20T07:48:55.271Z,98544.16
2022-12-20T07:52:59.217Z,98537.19
2022-12-20T07:57:08.710Z,98530.16
2022-12-20T08:01:13.928Z,98522.38
2022-12-20T08:05:18.390Z,98519.66
2022-12-20T08:09:21.751Z,98520.41
2022-12-20T08:13:27.005Z,98516.03
2022-12-20T08:17:30.405Z,98501.19
2022-12-20T08:21:34.081Z,98516.34
2022-12-20T08:25:41.490Z,98511.13
2022-12-20T08:29:47.255Z,98518.34
2022-12-20T08:39:08.476Z,98501.78
2022-12-20T08:43:11.632Z,98501.13
2022-12-20T08:47:16.868Z,98504.75
2022-12-20T08:51:20.179Z,98481.94
2022-12-20T08:55:29.020Z,98480.50
2022-12-20T08:59:32.891Z,98492.94
2022-12-20T09:03:39.400Z,98485.78
2022-12-20T09:07:42.544Z,98479.47
2022-12-20T09:11:46.066Z,98478.28
2022-12-20T09:15:49.251Z,98489.22
2022-12-20T09:19:55.320Z,98471.03
2022-12-20T09:23:59.297Z,98470.13
2022-12-20T09:28:02.743Z,98458.00
2022-12-20T09:32:06.088Z,98471.63
2022-12-20T09:36:13.584Z,98466.28
2022-12-20T09:40:21.195Z,98455.72
2022-12-20T09:44:28.912Z,98465.03
2022-12-20T09:48:35.845Z,98466.41
2022-12-20T09:53:01.441Z,98476.16
2022-12-20T09:57:14.664Z,98467.06
2022-12-20T10:01:25.265Z,98455.47
2022-12-20T10:05:41.076Z,98453.25
2022-12-20T10:10:02.283Z,98457.13
2022-12-20T10:14:18.963Z,98452.34
2022-12-20T10:18:38.763Z,98439.28
2022-12-20T10:22:48.674Z,98446.63
2022-12-20T10:26:53.978Z,98438.34
2022-12-20T10:31:02.286Z,98436.84
2022-12-20T10:35:24.061Z,98423.50
2022-12-20T10:39:42.801Z,98416.38
2022-12-20T10:43:51.029Z,98405.38
2022-12-20T10:48:01.313Z,98412.34
2022-12-20T10:52:13.162Z,98412.75
2022-12-20T10:56:21.748Z,98401.72
2022-12-20T11:00:32.833Z,98391.34
2022-12-20T11:04:38.811Z,98386.09
2022-12-20T11:08:51.066Z,98379.63
2022-12-20T11:12:58.397Z,98382.53
2022-12-20T11:17:08.473Z,98363.91
2022-12-20T11:21:27.866Z,98360.09
2022-12-20T11:25:43.482Z,98343.63
2022-12-20T11:30:10.090Z,98340.03
2022-12-20T11:34:29.397Z,98341.59
2022-12-20T11:38:42.084Z,98339.81
2022-12-20T11:42:54.188Z,98332.53
2022-12-20T11:47:09.544Z,98306.03
2022-12-20T11:51:26.790Z,98293.53
2022-12-20T11:55:34.973Z,98291.69
2022-12-20T11:59:44.673Z,98276.94
2022-12-20T12:04:00.765Z,98271.38
2022-12-20T12:08:18.185Z,98266.53
2022-12-20T12:12:26.742Z,98275.19
2022-12-20T12:16:35.603Z,98259.09
2022-12-20T12:20:53.444Z,98265.47
2022-12-20T12:25:04.019Z,98264.25
2022-12-20T12:29:13.368Z,98256.22
2022-12-20T12:33:25.705Z,98240.06
2022-12-20T12:37:55.088Z,98272.63
2022-12-20T12:42:42.561Z,98267.06
2022-12-20T12:46:47.658Z,98257.28
2022-12-20T12:50:54.253Z,98243.47
2022-12-20T12:54:57.575Z,98243.97
2022-12-20T12:59:26.026Z,98248.72
2022-12-20T13:03:46.257Z,98254.41
2022-12-20T13:07:51.280Z,98270.59
2022-12-20T13:12:02.062Z,98248.91
2022-12-20T13:16:14.384Z,98254.72
2022-12-20T13:20:21.999Z,98252.88
2022-12-20T13:24:37.800Z,98258.72
2022-12-20T13:28:47.781Z,98272.44
2022-12-20T13:33:23.723Z,98250.16
2022-12-20T13:37:28.384Z,98230.06
2022-12-20T13:41:37.864Z,98225.63
2022-12-20T13:45:44.988Z,98230.81
2022-12-20T13:49:49.750Z,98233.38
2022-12-20T13:53:58.393Z,98209.88
2022-12-20T13:58:07.817Z,98228.41
2022-12-20T14:02:18.803Z,98229.19
2022-12-20T14:06:27.164Z,98221.34
2022-12-20T14:10:32.881Z,98219.47
2022-12-20T14:14:39.284Z,98211.59
2022-12-20T14:18:42.488Z,98217.13
2022-12-20T14:23:00.769Z,98213.41
2022-12-20T14:27:07.891Z,98210.31
2022-12-20T14:31:26.416Z,98192.28
2022-12-20T14:35:30.090Z,98190.69
2022-12-20T14:39:38.127Z,98194.66
2022-12-20T14:43:42.277Z,98175.50
2022-12-20T14:47:51.913Z,98188.03
2022-12-20T14:52:09.333Z,98196.28
2022-12-20T14:56:31.308Z,98198.44
2022-12-20T15:00:36.047Z,98187.97
2022-12-20T15:04:39.854Z,98202.47
2022-12-20T15:08:43.431Z,98201.91
2022-12-20T15:12:54.003Z,98198.81
2022-12-20T15:16:59.619Z,98203.41
2022-12-20T15:21:06.589Z,98191.66
2022-12-20T15:25:17.820Z,98168.47
2022-12-20T15:29:25.395Z,98177.47
2022-12-20T15:33:33.676Z,98195.13
2022-12-20T15:37:37.107Z,98212.56
2022-12-20T15:41:43.170Z,98200.84
2022-12-20T15:45:51.481Z,98184.69
2022-12-20T15:49:54.909Z,98180.66
2022-12-20T15:53:58.479Z,98182.66
2022-12-20T15:58:01.753Z,98187.16
2022-12-20T16:02:18.160Z,98177.16
2022-12-20T16:06:21.525Z,98192.81
2022-12-20T16:10:25.728Z,98188.88
2022-12-20T16:14:28.963Z,98189.06
2022-12-20T16:18:34.935Z,98177.16
2022-12-20T16:22:38.395Z,98182.38
2022-12-20T16:26:42.487Z,98170.34
2022-12-20T16:30:52.681Z,98163.13
2022-12-20T16:34:59.435Z,98172.03
2022-12-20T16:39:02.919Z,98170.16
2022-12-20T16:43:06.474Z,98163.22
2022-12-20T16:47:11.333Z,98165.78
2022-12-20T16:51:29.345Z,98153.63
2022-12-20T16:55:39.518Z,98139.03
2022-12-20T16:59:43.902Z,98115.41
2022-12-20T17:03:47.914Z,98118.13
2022-12-20T17:07:53.269Z,98100.06
2022-12-20T17:11:56.762Z,98093.22
2022-12-20T17:16:00.291Z,98093.03
2022-12-20T17:20:04.249Z,98093.13
2022-12-20T17:24:20.379Z,98113.44
2022-12-20T17:28:26.449Z,98139.03
2022-12-20T17:32:30.045Z,98146.53
2022-12-20T17:36:38.028Z,98141.22
2022-12-20T17:40:43.493Z,98137.56
2022-12-20T17:44:47.576Z,98134.91
2022-12-20T17:48:51.457Z,98119.41
2022-12-20T17:52:56.019Z,98103.91
2022-12-20T17:57:00.553Z,98105.56
2022-12-20T18:01:04.223Z,98107.31
2022-12-20T18:05:09.509Z,98102.91
2022-12-20T18:09:15.700Z,98103.72
2022-12-20T18:13:20.693Z,98111.34
2022-12-20T18:17:24.307Z,98103.72
2022-12-20T18:21:29.005Z,98075.38
2022-12-20T18:25:32.766Z,98068.63
2022-12-20T18:29:37.172Z,98076.31
2022-12-20T18:33:41.015Z,98093.53
2022-12-20T18:37:45.370Z,98092.66
2022-12-20T18:41:49.231Z,98084.94
2022-12-20T18:45:53.872Z,98084.81
2022-12-20T18:49:57.972Z,98083.19
2022-12-20T18:54:02.269Z,98070.25
2022-12-20T18:58:05.907Z,98075.38
2022-12-20T19:02:12.623Z,98062.47
2022-12-20T19:06:16.833Z,98051.34
2022-12-20T19:10:19.935Z,98047.97
2022-12-20T19:14:23.711Z,98046.22
2022-12-20T19:18:29.011Z,98038.41
2022-12-20T19:22:32.743Z,98050.53
2022-12-20T19:26:37.828Z,98047.06
2022-12-20T19:30:41.154Z,98043.56
2022-12-20T19:34:46.829Z,98048.59
2022-12-20T19:38:52.281Z,98046.03
2022-12-20T19:42:56.211Z,98047.69
2022-12-20T19:47:06.029Z,98029.72
2022-12-20T19:51:13.862Z,98033.09
2022-12-20T19:55:18.094Z,98016.88
2022-12-20T19:59:21.387Z,98020.34
2022-12-20T20:03:27.267Z,97997.44
2022-12-20T20:07:32.277Z,97985.53
2022-12-20T20:11:36.179Z,97995.09
2022-12-20T20:15:44.895Z,97994.34
2022-12-20T20:19:51.906Z,97989.31
2022-12-20T20:24:00.686Z,98004.72
2022-12-20T20:28:05.069Z,97988.47
2022-12-20T20:32:10.565Z,97997.09
2022-12-20T20:36:15.956Z,97980.84
2022-12-20T20:40:23.241Z,97990.31
2022-12-20T20:44:27.753Z,97993.78
2022-12-20T20:48:33.685Z,97976.75
2022-12-20T20:52:39.880Z,97976.03
2022-12-20T20:56:45.726Z,97982.06
2022-12-20T21:00:52.305Z,97983.94
2022-12-20T21:05:52.038Z,97978.91
2022-12-20T21:09:22.144Z,97968.63
2022-12-20T21:13:27.563Z,97963.50
2022-12-20T21:17:33.404Z,97966.88
2022-12-20T21:21:37.360Z,97960.09
2022-12-20T21:25:41.137Z,97956.78
2022-12-20T21:29:45.885Z,97950.84
2022-12-20T21:33:49.471Z,97942.41
2022-12-20T21:37:52.906Z,97952.06
2022-12-20T21:42:01.704Z,97942.78
2022-12-20T21:46:11.929Z,97939.59
2022-12-20T21:50:16.145Z,97943.19
2022-12-20T21:54:19.472Z,97946.66
2022-12-20T21:58:23.029Z,97935.59
2022-12-20T22:02:27.923Z,97916.69
2022-12-20T22:06:32.235Z,97921.09
2022-12-20T22:10:35.344Z,97935.78
2022-12-20T22:14:41.460Z,97916.88
2022-12-20T22:18:49.856Z,97925.50
2022-12-20T22:22:53.353Z,97930.66
2022-12-20T22:26:56.767Z,97905.00
2022-12-20T22:31:00.231Z,97894.72
2022-12-20T22:35:05.256Z,97887.03
2022-12-20T22:39:09.270Z,97846.88
2022-12-20T22:43:15.548Z,97855.50
2022-12-20T22:51:41.020Z,97902.06
2022-12-20T22:55:44.091Z,97899.59
2022-12-20T22:59:47.495Z,97857.75
2022-12-20T23:03:51.094Z,97857.75
2022-12-20T23:07:55.489Z,97837.22
2022-12-20T23:12:16.348Z,97849.31
2022-12-20T23:16:19.635Z,97839.97
2022-12-20T23:20:40.347Z,97843.44
2022-12-20T23:24:45.249Z,97828.97
2022-12-20T23:28:49.198Z,97836.66
2022-12-20T23:32:54.205Z,97833.41
2022-12-20T23:36:59.149Z,97873.50
2022-12-20T23:41:08.486Z,97895.84
2022-12-20T23:45:12.774Z,97888.16
2022-12-20T23:49:15.890Z,97879.75
2022-12-20T23:53:19.384Z,97864.09
2022-12-20T23:57:24.110Z,97887.03
